sensor_id;sensor_type;location;lat;lon;timestamp;temperature;humidity
51273;DHT22;37345;59.828;30.328;2022-07-29T00:00:55;15.30;99.90
51273;DHT22;37345;59.828;30.328;2022-07-29T00:03:21;15.20;99.90
51273;DHT22;37345;59.828;30.328;2022-07-29T00:05:47;15.20;99.90
51273;DHT22;37345;59.828;30.328;2022-07-29T00:08:13;15.20;99.90
51273;DHT22;37345;59.828;30.328;2022-07-29T00:10:41;15.40;99.90
51273;DHT22;37345;59.828;30.328;2022-07-29T00:13:07;15.30;99.90
51273;DHT22;37345;59.828;30.328;2022-07-29T00:15:33;15.40;99.90
51273;DHT22;37345;59.828;30.328;2022-07-29T00:17:59;15.70;99.90
51273;DHT22;37345;59.828;30.328;2022-07-29T00:20:25;15.60;99.90
51273;DHT22;37345;59.828;30.328;2022-07-29T00:22:51;15.50;99.90
51273;DHT22;37345;59.828;30.328;2022-07-29T00:25:17;15.50;99.90
51273;DHT22;37345;59.828;30.328;2022-07-29T00:27:43;15.60;99.90
51273;DHT22;37345;59.828;30.328;2022-07-29T00:30:09;15.40;99.90
51273;DHT22;37345;59.828;30.328;2022-07-29T00:32:35;15.20;99.90
51273;DHT22;37345;59.828;30.328;2022-07-29T00:35:00;15.10;99.90
51273;DHT22;37345;59.828;30.328;2022-07-29T00:37:45;15.10;99.90
51273;DHT22;37345;59.828;30.328;2022-07-29T00:40:11;15.10;99.90
51273;DHT22;37345;59.828;30.328;2022-07-29T00:42:47;15.10;99.90
51273;DHT22;37345;59.828;30.328;2022-07-29T00:45:14;15.10;99.90
51273;DHT22;37345;59.828;30.328;2022-07-29T00:47:40;15.10;99.90
51273;DHT22;37345;59.828;30.328;2022-07-29T00:50:07;15.30;99.90
51273;DHT22;37345;59.828;30.328;2022-07-29T00:52:36;15.30;99.90
51273;DHT22;37345;59.828;30.328;2022-07-29T00:55:07;15.30;99.90
51273;DHT22;37345;59.828;30.328;2022-07-29T00:57:34;15.40;99.90
51273;DHT22;37345;59.828;30.328;2022-07-29T01:00:00;15.40;99.90
51273;DHT22;37345;59.828;30.328;2022-07-29T01:02:26;15.40;99.90
51273;DHT22;37345;59.828;30.328;2022-07-29T01:04:53;15.40;99.90
51273;DHT22;37345;59.828;30.328;2022-07-29T01:07:19;15.40;99.90
51273;DHT22;37345;59.828;30.328;2022-07-29T01:09:45;15.50;99.90
51273;DHT22;37345;59.828;30.328;2022-07-29T01:12:18;15.50;99.90
51273;DHT22;37345;59.828;30.328;2022-07-29T01:14:47;15.30;99.90
51273;DHT22;37345;59.828;30.328;2022-07-29T01:17:17;15.30;99.90
51273;DHT22;37345;59.828;30.328;2022-07-29T01:25:30;15.10;99.90
51273;DHT22;37345;59.828;30.328;2022-07-29T01:30:49;15.10;99.90
51273;DHT22;37345;59.828;30.328;2022-07-29T01:33:17;15.10;99.90
51273;DHT22;37345;59.828;30.328;2022-07-29T01:36:17;15.30;99.90
51273;DHT22;37345;59.828;30.328;2022-07-29T01:38:54;15.30;99.90
51273;DHT22;37345;59.828;30.328;2022-07-29T01:41:21;15.30;99.90
51273;DHT22;37345;59.828;30.328;2022-07-29T01:43:54;15.30;99.90
51273;DHT22;37345;59.828;30.328;2022-07-29T01:46:31;15.30;99.90
51273;DHT22;37345;59.828;30.328;2022-07-29T01:49:06;14.90;99.90
51273;DHT22;37345;59.828;30.328;2022-07-29T01:51:41;15.20;99.90
51273;DHT22;37345;59.828;30.328;2022-07-29T01:54:35;15.20;99.90
51273;DHT22;37345;59.828;30.328;2022-07-29T01:57:04;15.10;99.90
51273;DHT22;37345;59.828;30.328;2022-07-29T01:59:34;15.00;99.90
51273;DHT22;37345;59.828;30.328;2022-07-29T02:02:01;15.20;99.90
51273;DHT22;37345;59.828;30.328;2022-07-29T02:04:28;15.10;99.90
51273;DHT22;37345;59.828;30.328;2022-07-29T02:06:58;15.20;99.90
51273;DHT22;37345;59.828;30.328;2022-07-29T02:09:26;15.40;99.90
51273;DHT22;37345;59.828;30.328;2022-07-29T02:11:54;15.50;99.90
51273;DHT22;37345;59.828;30.328;2022-07-29T02:14:22;15.50;99.90
51273;DHT22;37345;59.828;30.328;2022-07-29T02:16:51;15.30;99.90
51273;DHT22;37345;59.828;30.328;2022-07-29T02:19:20;15.20;99.90
51273;DHT22;37345;59.828;30.328;2022-07-29T02:21:47;15.10;99.90
51273;DHT22;37345;59.828;30.328;2022-07-29T02:24:14;15.10;99.90
51273;DHT22;37345;59.828;30.328;2022-07-29T02:26:41;15.40;99.90
51273;DHT22;37345;59.828;30.328;2022-07-29T02:29:09;15.30;99.90
51273;DHT22;37345;59.828;30.328;2022-07-29T02:31:36;15.30;99.90
51273;DHT22;37345;59.828;30.328;2022-07-29T02:34:07;15.30;99.90
51273;DHT22;37345;59.828;30.328;2022-07-29T02:36:34;15.30;99.90
51273;DHT22;37345;59.828;30.328;2022-07-29T02:39:01;15.40;99.90
51273;DHT22;37345;59.828;30.328;2022-07-29T02:41:35;15.30;99.90
51273;DHT22;37345;59.828;30.328;2022-07-29T02:44:12;15.30;99.90
51273;DHT22;37345;59.828;30.328;2022-07-29T02:46:49;15.20;99.90
51273;DHT22;37345;59.828;30.328;2022-07-29T02:49:38;15.30;99.90
51273;DHT22;37345;59.828;30.328;2022-07-29T02:52:12;15.30;99.90
51273;DHT22;37345;59.828;30.328;2022-07-29T02:54:54;15.30;99.90
51273;DHT22;37345;59.828;30.328;2022-07-29T02:57:34;15.30;99.90
51273;DHT22;37345;59.828;30.328;2022-07-29T03:00:05;15.30;99.90
51273;DHT22;37345;59.828;30.328;2022-07-29T03:02:44;15.20;99.90
51273;DHT22;37345;59.828;30.328;2022-07-29T03:05:14;15.20;99.90
51273;DHT22;37345;59.828;30.328;2022-07-29T03:07:45;15.20;99.90
51273;DHT22;37345;59.828;30.328;2022-07-29T03:10:12;15.30;99.90
51273;DHT22;37345;59.828;30.328;2022-07-29T03:12:39;15.40;99.90
51273;DHT22;37345;59.828;30.328;2022-07-29T03:15:06;15.50;99.90
51273;DHT22;37345;59.828;30.328;2022-07-29T03:17:33;15.50;99.90
51273;DHT22;37345;59.828;30.328;2022-07-29T03:19:59;15.60;99.90
51273;DHT22;37345;59.828;30.328;2022-07-29T03:22:25;15.70;99.90
51273;DHT22;37345;59.828;30.328;2022-07-29T03:24:53;15.70;99.90
51273;DHT22;37345;59.828;30.328;2022-07-29T03:27:19;15.80;99.90
51273;DHT22;37345;59.828;30.328;2022-07-29T03:29:45;15.90;99.90
51273;DHT22;37345;59.828;30.328;2022-07-29T03:32:11;16.00;99.90
51273;DHT22;37345;59.828;30.328;2022-07-29T03:34:37;16.40;99.90
51273;DHT22;37345;59.828;30.328;2022-07-29T03:37:04;17.20;99.90
51273;DHT22;37345;59.828;30.328;2022-07-29T03:39:36;18.40;99.90
51273;DHT22;37345;59.828;30.328;2022-07-29T03:42:04;18.70;99.90
51273;DHT22;37345;59.828;30.328;2022-07-29T03:44:32;18.10;99.90
51273;DHT22;37345;59.828;30.328;2022-07-29T03:47:00;17.50;99.90
51273;DHT22;37345;59.828;30.328;2022-07-29T03:49:27;17.20;99.90
51273;DHT22;37345;59.828;30.328;2022-07-29T03:51:55;17.10;99.90
51273;DHT22;37345;59.828;30.328;2022-07-29T03:54:21;16.90;99.90
51273;DHT22;37345;59.828;30.328;2022-07-29T03:56:48;16.90;99.90
51273;DHT22;37345;59.828;30.328;2022-07-29T03:59:17;16.90;99.90
51273;DHT22;37345;59.828;30.328;2022-07-29T04:01:43;16.90;99.90
51273;DHT22;37345;59.828;30.328;2022-07-29T04:04:09;16.90;99.90
51273;DHT22;37345;59.828;30.328;2022-07-29T04:06:44;16.90;99.90
51273;DHT22;37345;59.828;30.328;2022-07-29T04:09:11;17.20;99.90
51273;DHT22;37345;59.828;30.328;2022-07-29T04:11:39;17.40;99.90
51273;DHT22;37345;59.828;30.328;2022-07-29T04:14:05;17.40;99.90
51273;DHT22;37345;59.828;30.328;2022-07-29T04:16:31;17.60;99.90
51273;DHT22;37345;59.828;30.328;2022-07-29T04:18:57;17.80;99.90
51273;DHT22;37345;59.828;30.328;2022-07-29T04:21:23;17.60;99.90
51273;DHT22;37345;59.828;30.328;2022-07-29T04:23:49;17.50;99.90
51273;DHT22;37345;59.828;30.328;2022-07-29T04:26:19;17.60;99.90
51273;DHT22;37345;59.828;30.328;2022-07-29T04:28:45;17.60;99.90
51273;DHT22;37345;59.828;30.328;2022-07-29T04:31:12;17.60;99.90
51273;DHT22;37345;59.828;30.328;2022-07-29T04:33:39;17.50;99.90
51273;DHT22;37345;59.828;30.328;2022-07-29T04:36:04;17.90;99.90
51273;DHT22;37345;59.828;30.328;2022-07-29T04:38:30;18.10;99.90
51273;DHT22;37345;59.828;30.328;2022-07-29T04:40:56;18.40;99.90
51273;DHT22;37345;59.828;30.328;2022-07-29T04:43:22;18.50;99.90
51273;DHT22;37345;59.828;30.328;2022-07-29T04:45:48;18.60;99.90
51273;DHT22;37345;59.828;30.328;2022-07-29T04:48:14;18.80;99.90
51273;DHT22;37345;59.828;30.328;2022-07-29T04:50:40;19.10;99.90
51273;DHT22;37345;59.828;30.328;2022-07-29T04:53:06;19.10;99.90
51273;DHT22;37345;59.828;30.328;2022-07-29T04:55:33;19.20;99.90
51273;DHT22;37345;59.828;30.328;2022-07-29T04:57:59;19.50;99.90
51273;DHT22;37345;59.828;30.328;2022-07-29T05:00:25;19.50;99.90
51273;DHT22;37345;59.828;30.328;2022-07-29T05:02:50;19.60;99.90
51273;DHT22;37345;59.828;30.328;2022-07-29T05:05:16;19.80;99.90
51273;DHT22;37345;59.828;30.328;2022-07-29T05:07:42;20.00;99.90
51273;DHT22;37345;59.828;30.328;2022-07-29T05:10:08;20.10;99.90
51273;DHT22;37345;59.828;30.328;2022-07-29T05:12:34;20.00;99.90
51273;DHT22;37345;59.828;30.328;2022-07-29T05:15:00;19.80;99.90
51273;DHT22;37345;59.828;30.328;2022-07-29T05:17:26;19.80;99.90
51273;DHT22;37345;59.828;30.328;2022-07-29T05:19:52;19.60;99.90
51273;DHT22;37345;59.828;30.328;2022-07-29T05:22:19;19.80;99.90
51273;DHT22;37345;59.828;30.328;2022-07-29T05:24:45;19.80;99.90
51273;DHT22;37345;59.828;30.328;2022-07-29T05:27:11;20.00;99.90
51273;DHT22;37345;59.828;30.328;2022-07-29T05:29:37;19.90;99.90
51273;DHT22;37345;59.828;30.328;2022-07-29T05:32:04;20.00;99.90
51273;DHT22;37345;59.828;30.328;2022-07-29T05:34:30;19.90;99.90
51273;DHT22;37345;59.828;30.328;2022-07-29T05:36:56;19.90;99.90
51273;DHT22;37345;59.828;30.328;2022-07-29T05:39:22;20.20;99.90
51273;DHT22;37345;59.828;30.328;2022-07-29T05:41:48;20.30;99.90
51273;DHT22;37345;59.828;30.328;2022-07-29T05:44:14;20.30;99.90
51273;DHT22;37345;59.828;30.328;2022-07-29T05:46:40;20.40;99.90
51273;DHT22;37345;59.828;30.328;2022-07-29T05:49:06;20.70;99.90
51273;DHT22;37345;59.828;30.328;2022-07-29T05:51:36;20.50;99.90
51273;DHT22;37345;59.828;30.328;2022-07-29T05:54:04;20.40;99.90
51273;DHT22;37345;59.828;30.328;2022-07-29T05:56:30;20.40;99.90
51273;DHT22;37345;59.828;30.328;2022-07-29T05:58:56;20.70;99.90
51273;DHT22;37345;59.828;30.328;2022-07-29T06:01:22;20.60;99.90
51273;DHT22;37345;59.828;30.328;2022-07-29T06:03:47;21.00;99.90
51273;DHT22;37345;59.828;30.328;2022-07-29T06:06:13;21.10;99.90
51273;DHT22;37345;59.828;30.328;2022-07-29T06:08:39;21.20;99.90
51273;DHT22;37345;59.828;30.328;2022-07-29T06:11:06;21.20;99.90
51273;DHT22;37345;59.828;30.328;2022-07-29T06:13:33;20.80;99.90
51273;DHT22;37345;59.828;30.328;2022-07-29T06:15:59;20.60;99.90
51273;DHT22;37345;59.828;30.328;2022-07-29T06:18:28;20.40;99.90
51273;DHT22;37345;59.828;30.328;2022-07-29T06:20:54;20.60;99.90
51273;DHT22;37345;59.828;30.328;2022-07-29T06:23:20;20.70;99.90
51273;DHT22;37345;59.828;30.328;2022-07-29T06:25:46;20.70;99.90
51273;DHT22;37345;59.828;30.328;2022-07-29T06:28:12;20.40;99.90
51273;DHT22;37345;59.828;30.328;2022-07-29T06:30:39;20.30;99.90
51273;DHT22;37345;59.828;30.328;2022-07-29T06:33:05;20.40;99.90
51273;DHT22;37345;59.828;30.328;2022-07-29T06:35:34;20.20;99.90
51273;DHT22;37345;59.828;30.328;2022-07-29T06:38:01;20.40;99.90
51273;DHT22;37345;59.828;30.328;2022-07-29T06:40:27;20.50;99.90
51273;DHT22;37345;59.828;30.328;2022-07-29T06:43:11;20.40;99.90
51273;DHT22;37345;59.828;30.328;2022-07-29T06:45:37;20.30;99.90
51273;DHT22;37345;59.828;30.328;2022-07-29T06:48:06;20.30;99.90
51273;DHT22;37345;59.828;30.328;2022-07-29T06:50:32;20.10;99.90
51273;DHT22;37345;59.828;30.328;2022-07-29T06:52:58;19.70;99.90
51273;DHT22;37345;59.828;30.328;2022-07-29T06:55:24;19.60;99.90
51273;DHT22;37345;59.828;30.328;2022-07-29T06:57:50;19.40;99.90
51273;DHT22;37345;59.828;30.328;2022-07-29T07:00:16;19.60;99.90
51273;DHT22;37345;59.828;30.328;2022-07-29T07:02:42;19.90;99.90
51273;DHT22;37345;59.828;30.328;2022-07-29T07:05:07;20.20;99.90
51273;DHT22;37345;59.828;30.328;2022-07-29T07:07:33;20.30;99.90
51273;DHT22;37345;59.828;30.328;2022-07-29T07:09:59;20.30;99.90
51273;DHT22;37345;59.828;30.328;2022-07-29T07:12:25;20.20;99.90
51273;DHT22;37345;59.828;30.328;2022-07-29T07:14:51;20.30;99.90
51273;DHT22;37345;59.828;30.328;2022-07-29T07:17:17;20.40;99.90
51273;DHT22;37345;59.828;30.328;2022-07-29T07:19:42;20.40;99.90
51273;DHT22;37345;59.828;30.328;2022-07-29T07:22:08;20.70;99.90
51273;DHT22;37345;59.828;30.328;2022-07-29T07:24:34;21.00;99.90
51273;DHT22;37345;59.828;30.328;2022-07-29T07:27:00;21.10;99.90
51273;DHT22;37345;59.828;30.328;2022-07-29T07:29:26;21.30;99.90
51273;DHT22;37345;59.828;30.328;2022-07-29T07:31:51;21.40;99.90
51273;DHT22;37345;59.828;30.328;2022-07-29T07:34:18;21.50;99.90
51273;DHT22;37345;59.828;30.328;2022-07-29T07:43:09;22.00;99.90
51273;DHT22;37345;59.828;30.328;2022-07-29T07:48:46;22.70;99.90
51273;DHT22;37345;59.828;30.328;2022-07-29T07:51:12;23.40;99.90
51273;DHT22;37345;59.828;30.328;2022-07-29T07:53:38;23.90;99.90
51273;DHT22;37345;59.828;30.328;2022-07-29T07:56:04;24.00;99.90
51273;DHT22;37345;59.828;30.328;2022-07-29T07:58:32;23.70;99.90
51273;DHT22;37345;59.828;30.328;2022-07-29T08:00:57;23.50;99.90
51273;DHT22;37345;59.828;30.328;2022-07-29T08:03:23;22.90;99.90
51273;DHT22;37345;59.828;30.328;2022-07-29T08:05:49;22.50;99.90
51273;DHT22;37345;59.828;30.328;2022-07-29T08:08:17;22.10;99.90
51273;DHT22;37345;59.828;30.328;2022-07-29T08:10:43;22.00;99.90
51273;DHT22;37345;59.828;30.328;2022-07-29T08:13:19;21.90;99.90
51273;DHT22;37345;59.828;30.328;2022-07-29T08:15:46;22.10;99.90
51273;DHT22;37345;59.828;30.328;2022-07-29T08:21:38;21.60;99.90
51273;DHT22;37345;59.828;30.328;2022-07-29T08:24:04;21.00;99.90
51273;DHT22;37345;59.828;30.328;2022-07-29T08:26:49;20.90;99.90
51273;DHT22;37345;59.828;30.328;2022-07-29T08:29:15;20.50;99.90
51273;DHT22;37345;59.828;30.328;2022-07-29T08:31:41;20.60;99.90
51273;DHT22;37345;59.828;30.328;2022-07-29T08:34:07;20.70;99.90
51273;DHT22;37345;59.828;30.328;2022-07-29T08:39:25;20.30;99.90
51273;DHT22;37345;59.828;30.328;2022-07-29T08:44:59;20.70;99.90
51273;DHT22;37345;59.828;30.328;2022-07-29T08:47:58;20.20;99.90
51273;DHT22;37345;59.828;30.328;2022-07-29T08:50:27;22.70;99.90
51273;DHT22;37345;59.828;30.328;2022-07-29T08:53:03;21.10;99.90
51273;DHT22;37345;59.828;30.328;2022-07-29T08:55:29;20.90;99.90
51273;DHT22;37345;59.828;30.328;2022-07-29T08:57:55;21.10;99.90
51273;DHT22;37345;59.828;30.328;2022-07-29T09:00:22;21.10;99.90
51273;DHT22;37345;59.828;30.328;2022-07-29T09:02:54;20.80;99.90
51273;DHT22;37345;59.828;30.328;2022-07-29T09:05:22;20.80;99.90
51273;DHT22;37345;59.828;30.328;2022-07-29T09:07:49;20.80;99.90
51273;DHT22;37345;59.828;30.328;2022-07-29T09:10:15;21.00;99.90
51273;DHT22;37345;59.828;30.328;2022-07-29T09:12:42;21.00;99.90
51273;DHT22;37345;59.828;30.328;2022-07-29T09:15:08;20.80;99.90
51273;DHT22;37345;59.828;30.328;2022-07-29T09:17:48;20.70;99.90
51273;DHT22;37345;59.828;30.328;2022-07-29T09:20:18;20.70;99.90
51273;DHT22;37345;59.828;30.328;2022-07-29T09:22:44;20.60;99.90
51273;DHT22;37345;59.828;30.328;2022-07-29T09:25:30;20.60;99.90
51273;DHT22;37345;59.828;30.328;2022-07-29T09:28:06;20.70;99.90
51273;DHT22;37345;59.828;30.328;2022-07-29T09:30:32;20.90;99.90
51273;DHT22;37345;59.828;30.328;2022-07-29T09:33:00;21.00;99.90
51273;DHT22;37345;59.828;30.328;2022-07-29T09:35:30;20.90;99.90
51273;DHT22;37345;59.828;30.328;2022-07-29T09:37:56;20.90;99.90
51273;DHT22;37345;59.828;30.328;2022-07-29T09:40:27;20.60;99.90
51273;DHT22;37345;59.828;30.328;2022-07-29T09:42:54;21.20;99.90
51273;DHT22;37345;59.828;30.328;2022-07-29T09:45:33;21.30;99.90
51273;DHT22;37345;59.828;30.328;2022-07-29T09:48:24;21.20;99.90
51273;DHT22;37345;59.828;30.328;2022-07-29T09:50:56;21.40;99.90
51273;DHT22;37345;59.828;30.328;2022-07-29T09:53:32;22.60;99.90
51273;DHT22;37345;59.828;30.328;2022-07-29T09:55:59;21.60;99.90
51273;DHT22;37345;59.828;30.328;2022-07-29T09:58:25;21.40;99.90
51273;DHT22;37345;59.828;30.328;2022-07-29T10:00:52;21.50;99.90
51273;DHT22;37345;59.828;30.328;2022-07-29T10:03:19;21.70;99.90
51273;DHT22;37345;59.828;30.328;2022-07-29T10:05:45;22.30;99.90
51273;DHT22;37345;59.828;30.328;2022-07-29T10:08:12;22.20;99.90
51273;DHT22;37345;59.828;30.328;2022-07-29T10:10:40;22.10;99.90
51273;DHT22;37345;59.828;30.328;2022-07-29T10:13:11;22.00;99.90
51273;DHT22;37345;59.828;30.328;2022-07-29T10:15:42;21.70;99.90
51273;DHT22;37345;59.828;30.328;2022-07-29T10:18:11;21.20;99.90
51273;DHT22;37345;59.828;30.328;2022-07-29T10:20:38;21.00;99.90
51273;DHT22;37345;59.828;30.328;2022-07-29T10:23:04;21.30;99.90
51273;DHT22;37345;59.828;30.328;2022-07-29T10:25:30;21.10;99.90
51273;DHT22;37345;59.828;30.328;2022-07-29T10:27:57;21.10;99.90
51273;DHT22;37345;59.828;30.328;2022-07-29T10:30:24;20.90;99.90
51273;DHT22;37345;59.828;30.328;2022-07-29T10:38:37;21.10;99.90
51273;DHT22;37345;59.828;30.328;2022-07-29T10:46:29;20.70;99.90
51273;DHT22;37345;59.828;30.328;2022-07-29T10:59:43;21.40;99.90
51273;DHT22;37345;59.828;30.328;2022-07-29T11:05:07;21.80;99.90
51273;DHT22;37345;59.828;30.328;2022-07-29T11:07:35;21.80;99.90
51273;DHT22;37345;59.828;30.328;2022-07-29T11:10:21;21.90;99.90
51273;DHT22;37345;59.828;30.328;2022-07-29T11:12:48;21.90;99.90
51273;DHT22;37345;59.828;30.328;2022-07-29T11:15:19;21.80;99.90
51273;DHT22;37345;59.828;30.328;2022-07-29T11:20:47;22.40;99.90
51273;DHT22;37345;59.828;30.328;2022-07-29T11:23:30;22.80;99.90
51273;DHT22;37345;59.828;30.328;2022-07-29T11:26:14;23.40;99.90
51273;DHT22;37345;59.828;30.328;2022-07-29T11:31:39;24.80;99.90
51273;DHT22;37345;59.828;30.328;2022-07-29T11:34:29;24.20;99.90
51273;DHT22;37345;59.828;30.328;2022-07-29T11:39:46;23.50;99.90
51273;DHT22;37345;59.828;30.328;2022-07-29T11:45:03;23.00;99.90
51273;DHT22;37345;59.828;30.328;2022-07-29T11:50:26;22.50;99.90
51273;DHT22;37345;59.828;30.328;2022-07-29T11:52:55;22.40;99.90
51273;DHT22;37345;59.828;30.328;2022-07-29T11:55:23;22.70;99.90
51273;DHT22;37345;59.828;30.328;2022-07-29T11:57:55;22.20;99.90
51273;DHT22;37345;59.828;30.328;2022-07-29T12:00:41;21.80;99.90
51273;DHT22;37345;59.828;30.328;2022-07-29T12:03:10;21.50;99.90
51273;DHT22;37345;59.828;30.328;2022-07-29T12:05:43;21.30;99.90
51273;DHT22;37345;59.828;30.328;2022-07-29T12:08:19;21.20;99.90
51273;DHT22;37345;59.828;30.328;2022-07-29T12:10:46;21.30;99.90
51273;DHT22;37345;59.828;30.328;2022-07-29T12:13:13;21.30;99.90
51273;DHT22;37345;59.828;30.328;2022-07-29T12:15:40;21.10;99.90
51273;DHT22;37345;59.828;30.328;2022-07-29T12:18:17;21.30;99.90
51273;DHT22;37345;59.828;30.328;2022-07-29T12:20:44;21.10;99.90
51273;DHT22;37345;59.828;30.328;2022-07-29T12:23:10;20.80;99.90
51273;DHT22;37345;59.828;30.328;2022-07-29T12:25:41;20.90;99.90
51273;DHT22;37345;59.828;30.328;2022-07-29T12:28:10;21.10;99.90
51273;DHT22;37345;59.828;30.328;2022-07-29T12:30:46;20.90;99.90
51273;DHT22;37345;59.828;30.328;2022-07-29T12:33:22;20.50;99.90
51273;DHT22;37345;59.828;30.328;2022-07-29T12:36:00;20.50;99.90
51273;DHT22;37345;59.828;30.328;2022-07-29T12:38:26;20.70;99.90
51273;DHT22;37345;59.828;30.328;2022-07-29T12:40:53;20.60;99.90
51273;DHT22;37345;59.828;30.328;2022-07-29T12:43:24;20.80;99.90
51273;DHT22;37345;59.828;30.328;2022-07-29T12:45:52;20.90;99.90
51273;DHT22;37345;59.828;30.328;2022-07-29T12:48:33;20.80;99.90
51273;DHT22;37345;59.828;30.328;2022-07-29T12:51:04;20.50;99.90
51273;DHT22;37345;59.828;30.328;2022-07-29T12:53:30;20.60;99.90
51273;DHT22;37345;59.828;30.328;2022-07-29T12:55:57;20.80;99.90
51273;DHT22;37345;59.828;30.328;2022-07-29T12:58:36;20.80;99.90
51273;DHT22;37345;59.828;30.328;2022-07-29T13:01:07;20.70;99.90
51273;DHT22;37345;59.828;30.328;2022-07-29T13:04:05;20.60;99.90
51273;DHT22;37345;59.828;30.328;2022-07-29T13:09:19;22.60;99.90
51273;DHT22;37345;59.828;30.328;2022-07-29T13:11:51;21.00;99.90
51273;DHT22;37345;59.828;30.328;2022-07-29T13:14:39;21.00;99.90
51273;DHT22;37345;59.828;30.328;2022-07-29T13:17:16;20.60;99.90
51273;DHT22;37345;59.828;30.328;2022-07-29T13:22:32;20.40;99.90
51273;DHT22;37345;59.828;30.328;2022-07-29T13:24:59;20.60;99.90
51273;DHT22;37345;59.828;30.328;2022-07-29T13:27:30;20.60;99.90
51273;DHT22;37345;59.828;30.328;2022-07-29T13:30:00;20.60;99.90
51273;DHT22;37345;59.828;30.328;2022-07-29T13:32:28;20.60;99.90
51273;DHT22;37345;59.828;30.328;2022-07-29T13:34:55;20.60;99.90
51273;DHT22;37345;59.828;30.328;2022-07-29T13:37:21;20.70;99.90
51273;DHT22;37345;59.828;30.328;2022-07-29T13:39:47;20.80;99.90
51273;DHT22;37345;59.828;30.328;2022-07-29T13:42:13;20.80;99.90
51273;DHT22;37345;59.828;30.328;2022-07-29T13:44:40;20.80;99.90
51273;DHT22;37345;59.828;30.328;2022-07-29T13:47:08;20.90;99.90
51273;DHT22;37345;59.828;30.328;2022-07-29T13:49:35;20.50;99.90
51273;DHT22;37345;59.828;30.328;2022-07-29T13:52:01;20.20;99.90
51273;DHT22;37345;59.828;30.328;2022-07-29T13:54:27;20.10;99.90
51273;DHT22;37345;59.828;30.328;2022-07-29T13:56:53;20.10;99.90
51273;DHT22;37345;59.828;30.328;2022-07-29T13:59:19;19.90;99.90
51273;DHT22;37345;59.828;30.328;2022-07-29T14:01:44;20.10;99.90
51273;DHT22;37345;59.828;30.328;2022-07-29T14:04:10;19.90;99.90
51273;DHT22;37345;59.828;30.328;2022-07-29T14:06:39;20.10;99.90
51273;DHT22;37345;59.828;30.328;2022-07-29T14:09:05;20.30;99.90
51273;DHT22;37345;59.828;30.328;2022-07-29T14:11:37;20.30;99.90
51273;DHT22;37345;59.828;30.328;2022-07-29T14:14:04;20.50;99.90
51273;DHT22;37345;59.828;30.328;2022-07-29T14:16:33;20.60;99.90
51273;DHT22;37345;59.828;30.328;2022-07-29T14:18:59;20.70;99.90
51273;DHT22;37345;59.828;30.328;2022-07-29T14:21:25;20.50;99.90
51273;DHT22;37345;59.828;30.328;2022-07-29T14:23:51;20.50;99.90
51273;DHT22;37345;59.828;30.328;2022-07-29T14:26:18;20.40;99.90
51273;DHT22;37345;59.828;30.328;2022-07-29T14:28:44;20.50;99.90
51273;DHT22;37345;59.828;30.328;2022-07-29T14:31:10;20.60;99.90
51273;DHT22;37345;59.828;30.328;2022-07-29T14:33:35;20.40;99.90
51273;DHT22;37345;59.828;30.328;2022-07-29T14:36:01;20.40;99.90
51273;DHT22;37345;59.828;30.328;2022-07-29T14:38:27;20.70;99.90
51273;DHT22;37345;59.828;30.328;2022-07-29T14:40:53;20.80;99.90
51273;DHT22;37345;59.828;30.328;2022-07-29T14:43:19;20.60;99.90
51273;DHT22;37345;59.828;30.328;2022-07-29T14:45:45;20.50;99.90
51273;DHT22;37345;59.828;30.328;2022-07-29T14:48:11;20.50;99.90
51273;DHT22;37345;59.828;30.328;2022-07-29T14:50:37;20.50;99.90
51273;DHT22;37345;59.828;30.328;2022-07-29T14:53:03;20.50;99.90
51273;DHT22;37345;59.828;30.328;2022-07-29T14:55:29;20.60;99.90
51273;DHT22;37345;59.828;30.328;2022-07-29T14:57:55;20.60;99.90
51273;DHT22;37345;59.828;30.328;2022-07-29T15:00:21;20.60;99.90
51273;DHT22;37345;59.828;30.328;2022-07-29T15:02:48;20.70;99.90
51273;DHT22;37345;59.828;30.328;2022-07-29T15:05:23;20.60;99.90
51273;DHT22;37345;59.828;30.328;2022-07-29T15:07:49;19.40;99.90
51273;DHT22;37345;59.828;30.328;2022-07-29T15:10:17;20.20;99.90
51273;DHT22;37345;59.828;30.328;2022-07-29T15:12:43;20.10;99.90
51273;DHT22;37345;59.828;30.328;2022-07-29T15:15:09;19.90;99.90
51273;DHT22;37345;59.828;30.328;2022-07-29T15:17:37;19.90;99.90
51273;DHT22;37345;59.828;30.328;2022-07-29T15:20:07;19.90;99.90
51273;DHT22;37345;59.828;30.328;2022-07-29T15:22:33;19.80;99.90
51273;DHT22;37345;59.828;30.328;2022-07-29T15:25:01;19.60;99.90
51273;DHT22;37345;59.828;30.328;2022-07-29T15:27:27;19.60;99.90
51273;DHT22;37345;59.828;30.328;2022-07-29T15:29:56;19.40;99.90
51273;DHT22;37345;59.828;30.328;2022-07-29T15:32:22;19.30;99.90
51273;DHT22;37345;59.828;30.328;2022-07-29T15:34:48;19.50;99.90
51273;DHT22;37345;59.828;30.328;2022-07-29T15:37:14;19.40;99.90
51273;DHT22;37345;59.828;30.328;2022-07-29T15:39:40;19.30;99.90
51273;DHT22;37345;59.828;30.328;2022-07-29T15:42:06;19.20;99.90
51273;DHT22;37345;59.828;30.328;2022-07-29T15:44:32;19.40;99.90
51273;DHT22;37345;59.828;30.328;2022-07-29T15:46:57;19.00;99.90
51273;DHT22;37345;59.828;30.328;2022-07-29T15:49:39;18.40;99.90
51273;DHT22;37345;59.828;30.328;2022-07-29T15:52:12;17.50;99.90
51273;DHT22;37345;59.828;30.328;2022-07-29T15:54:38;16.90;99.90
51273;DHT22;37345;59.828;30.328;2022-07-29T15:57:06;16.60;99.90
51273;DHT22;37345;59.828;30.328;2022-07-29T15:59:32;16.60;99.90
51273;DHT22;37345;59.828;30.328;2022-07-29T16:01:59;16.40;99.90
51273;DHT22;37345;59.828;30.328;2022-07-29T16:04:25;16.40;99.90
51273;DHT22;37345;59.828;30.328;2022-07-29T16:06:51;16.50;99.90
51273;DHT22;37345;59.828;30.328;2022-07-29T16:09:17;16.40;99.90
51273;DHT22;37345;59.828;30.328;2022-07-29T16:11:43;16.70;99.90
51273;DHT22;37345;59.828;30.328;2022-07-29T16:14:11;16.70;99.90
51273;DHT22;37345;59.828;30.328;2022-07-29T16:16:46;16.60;99.90
51273;DHT22;37345;59.828;30.328;2022-07-29T16:19:30;16.80;99.90
51273;DHT22;37345;59.828;30.328;2022-07-29T16:21:56;16.70;99.90
51273;DHT22;37345;59.828;30.328;2022-07-29T16:24:22;16.60;99.90
51273;DHT22;37345;59.828;30.328;2022-07-29T16:26:54;16.30;99.90
51273;DHT22;37345;59.828;30.328;2022-07-29T16:29:20;16.50;99.90
51273;DHT22;37345;59.828;30.328;2022-07-29T16:31:46;16.70;99.90
51273;DHT22;37345;59.828;30.328;2022-07-29T16:34:12;16.80;99.90
51273;DHT22;37345;59.828;30.328;2022-07-29T16:36:37;16.50;99.90